createdAt,value
2017-08-26T00:02:40.745Z,59.60
2017-08-26T00:05:08.258Z,58.90
2017-08-26T00:07:35.735Z,59.40
2017-08-26T00:10:03.215Z,58.40
2017-08-26T00:12:30.728Z,58.60
2017-08-26T00:14:58.227Z,58.60
2017-08-26T00:17:25.706Z,58.60
2017-08-26T00:19:53.209Z,58.20
2017-08-26T00:22:20.694Z,58.20
2017-08-26T00:24:48.173Z,58.30
2017-08-26T00:27:15.690Z,58.30
2017-08-26T00:29:43.182Z,58.20
2017-08-26T00:32:10.666Z,58.30
2017-08-26T00:34:38.167Z,58.30
2017-08-26T00:37:05.643Z,58.30
2017-08-26T00:39:33.135Z,58.50
2017-08-26T00:42:00.654Z,58.90
2017-08-26T00:44:28.133Z,60.60
2017-08-26T00:46:55.613Z,60.50
2017-08-26T00:49:23.132Z,61.00
2017-08-26T00:51:50.614Z,61.60
2017-08-26T00:54:18.108Z,63.00
2017-08-26T00:56:45.610Z,62.00
2017-08-26T00:59:13.088Z,63.20
2017-08-26T01:01:40.580Z,63.30
2017-08-26T01:04:08.108Z,63.80
2017-08-26T01:06:35.594Z,64.70
2017-08-26T01:09:03.088Z,64.40
2017-08-26T01:11:30.598Z,64.90
2017-08-26T01:13:58.101Z,63.40
2017-08-26T01:16:25.621Z,64.90
2017-08-26T01:18:53.149Z,65.60
2017-08-26T01:21:20.634Z,66.90
2017-08-26T01:23:48.118Z,66.10
2017-08-26T01:26:15.626Z,65.90
2017-08-26T01:28:43.110Z,65.50
2017-08-26T01:31:10.581Z,65.20
2017-08-26T01:33:38.088Z,65.50
2017-08-26T01:36:05.565Z,65.40
2017-08-26T01:38:33.041Z,65.90
2017-08-26T01:41:00.542Z,65.70
2017-08-26T01:43:28.022Z,65.10
2017-08-26T01:45:55.517Z,65.50
2017-08-26T01:48:23.013Z,65.10
2017-08-26T01:50:50.509Z,64.60
2017-08-26T01:53:17.989Z,64.90
2017-08-26T01:55:45.495Z,65.20
2017-08-26T01:58:12.989Z,64.80
2017-08-26T02:00:40.474Z,65.60
2017-08-26T02:03:07.972Z,65.00
2017-08-26T02:05:35.463Z,65.50
2017-08-26T02:08:02.945Z,65.70
2017-08-26T02:10:30.463Z,66.30
2017-08-26T02:12:57.951Z,65.70
2017-08-26T02:15:25.433Z,65.10
2017-08-26T02:17:52.944Z,64.10
2017-08-26T02:20:20.432Z,63.50
2017-08-26T02:22:47.959Z,62.90
2017-08-26T02:25:15.476Z,62.70
2017-08-26T02:27:43.080Z,62.40
2017-08-26T02:30:10.558Z,63.20
2017-08-26T02:32:38.062Z,64.40
2017-08-26T02:35:05.539Z,65.50
2017-08-26T02:37:33.022Z,66.80
2017-08-26T02:40:00.537Z,67.70
2017-08-26T02:42:28.013Z,68.00
2017-08-26T02:44:55.501Z,67.60
2017-08-26T02:47:23.017Z,68.20
2017-08-26T02:49:50.506Z,68.40
2017-08-26T02:52:18.074Z,68.20
2017-08-26T02:54:45.596Z,67.90
2017-08-26T02:57:13.088Z,67.90
2017-08-26T02:59:40.570Z,67.40
2017-08-26T03:02:08.074Z,67.60
2017-08-26T03:04:35.563Z,68.10
2017-08-26T03:07:03.059Z,67.80
2017-08-26T03:09:30.586Z,67.20
2017-08-26T03:11:58.068Z,64.90
2017-08-26T03:14:25.557Z,64.00
2017-08-26T03:16:53.068Z,64.00
2017-08-26T03:19:20.553Z,64.00
2017-08-26T03:21:48.030Z,63.00
2017-08-26T03:24:15.547Z,62.40
2017-08-26T03:26:43.044Z,61.70
2017-08-26T03:29:10.517Z,62.50
2017-08-26T03:31:38.030Z,61.00
2017-08-26T03:34:05.522Z,60.00
2017-08-26T03:36:33.006Z,59.90
2017-08-26T03:39:00.515Z,60.00
2017-08-26T03:41:27.994Z,60.30
2017-08-26T03:43:55.492Z,60.30
2017-08-26T03:46:23.040Z,61.00
2017-08-26T03:48:50.536Z,59.90
2017-08-26T03:51:18.042Z,59.90
2017-08-26T03:53:45.557Z,59.70
2017-08-26T03:56:13.070Z,59.70
2017-08-26T03:58:40.570Z,59.30
2017-08-26T04:01:08.088Z,59.60
2017-08-26T04:03:35.578Z,59.50
2017-08-26T04:06:03.068Z,60.50
2017-08-26T04:08:30.581Z,59.30
2017-08-26T04:10:58.073Z,59.50
2017-08-26T04:13:25.564Z,59.60
2017-08-26T04:15:53.063Z,59.70
2017-08-26T04:18:20.560Z,59.60
2017-08-26T04:20:48.052Z,59.80
2017-08-26T04:23:15.642Z,59.50
2017-08-26T04:25:43.128Z,59.80
2017-08-26T04:28:10.628Z,60.30
2017-08-26T04:30:38.137Z,60.10
2017-08-26T04:33:05.631Z,59.90
2017-08-26T04:35:33.133Z,60.80
2017-08-26T04:38:00.650Z,59.20
2017-08-26T04:40:28.130Z,59.80
2017-08-26T04:42:55.613Z,60.50
2017-08-26T04:45:23.123Z,60.00
2017-08-26T04:47:50.598Z,59.60
2017-08-26T04:50:18.091Z,60.00
2017-08-26T04:52:45.591Z,60.40
2017-08-26T04:55:13.087Z,60.90
2017-08-26T04:57:40.574Z,60.60
2017-08-26T05:00:08.083Z,61.30
2017-08-26T05:02:35.570Z,61.30
2017-08-26T05:05:03.064Z,61.20
2017-08-26T05:07:30.564Z,61.10
2017-08-26T05:09:58.033Z,61.00
2017-08-26T05:12:25.518Z,61.30
2017-08-26T05:14:53.900Z,61.20
2017-08-26T05:17:21.387Z,60.80
2017-08-26T05:19:48.865Z,61.10
2017-08-26T05:22:16.390Z,60.70
2017-08-26T05:24:43.879Z,60.60
2017-08-26T05:27:11.350Z,61.10
2017-08-26T05:29:38.863Z,61.40
2017-08-26T05:32:06.345Z,61.50
2017-08-26T05:34:33.813Z,61.60
2017-08-26T05:37:01.334Z,61.40
2017-08-26T05:39:28.819Z,61.20
2017-08-26T05:41:56.309Z,61.20
2017-08-26T05:44:23.811Z,61.30
2017-08-26T05:46:51.311Z,61.00
2017-08-26T05:49:18.792Z,61.00
2017-08-26T05:51:46.414Z,61.30
2017-08-26T05:54:13.899Z,61.00
2017-08-26T05:56:41.382Z,60.70
2017-08-26T05:59:08.887Z,61.00
2017-08-26T06:01:36.378Z,60.80
2017-08-26T06:04:03.866Z,60.60
2017-08-26T06:06:31.375Z,60.80
2017-08-26T06:08:58.858Z,61.10
2017-08-26T06:11:26.341Z,60.20
2017-08-26T06:13:53.856Z,60.00
2017-08-26T06:16:21.340Z,61.50
2017-08-26T06:18:48.813Z,61.00
2017-08-26T06:21:16.332Z,60.70
2017-08-26T06:23:43.818Z,60.50
2017-08-26T06:26:11.297Z,60.70
2017-08-26T06:28:38.798Z,60.80
2017-08-26T06:31:06.269Z,61.50
2017-08-26T06:33:33.750Z,60.60
2017-08-26T06:36:01.256Z,60.70
2017-08-26T06:38:28.748Z,60.80
2017-08-26T06:43:38.358Z,61.90
2017-08-26T06:46:05.858Z,61.70
2017-08-26T06:48:33.365Z,61.20
2017-08-26T06:51:00.887Z,61.80
2017-08-26T06:53:28.375Z,60.80
2017-08-26T06:55:55.867Z,59.70
2017-08-26T06:58:23.381Z,60.20
2017-08-26T07:00:50.866Z,59.40
2017-08-26T07:03:18.342Z,60.50
2017-08-26T07:05:45.854Z,60.50
2017-08-26T07:08:13.332Z,58.80
2017-08-26T07:10:40.825Z,60.60
2017-08-26T07:13:08.343Z,61.00
2017-08-26T07:15:35.833Z,60.80
2017-08-26T07:18:03.427Z,60.30
2017-08-26T07:20:30.928Z,60.30
2017-08-26T07:22:58.422Z,59.70
2017-08-26T07:25:25.902Z,59.70
2017-08-26T07:27:53.409Z,59.80
2017-08-26T07:30:20.894Z,58.90
2017-08-26T07:32:48.376Z,59.10
2017-08-26T07:35:15.878Z,59.10
2017-08-26T07:37:43.375Z,58.00
2017-08-26T07:40:10.882Z,58.60
2017-08-26T07:42:38.392Z,58.90
2017-08-26T07:45:05.866Z,58.30
2017-08-26T07:47:33.351Z,57.80
2017-08-26T07:50:00.874Z,58.10
2017-08-26T07:52:28.354Z,58.90
2017-08-26T07:54:55.847Z,57.70
2017-08-26T07:57:23.363Z,58.70
2017-08-26T07:59:50.858Z,58.60
2017-08-26T08:02:18.350Z,57.20
2017-08-26T08:04:45.856Z,58.30
2017-08-26T08:07:13.338Z,57.10
2017-08-26T08:09:40.828Z,56.70
2017-08-26T08:12:08.330Z,58.10
2017-08-26T08:14:35.815Z,56.50
2017-08-26T08:17:03.307Z,57.00
2017-08-26T08:19:30.817Z,58.10
2017-08-26T08:21:58.300Z,58.10
2017-08-26T08:24:25.792Z,57.40
2017-08-26T08:26:53.629Z,58.20
2017-08-26T08:29:21.116Z,57.50
2017-08-26T08:31:48.606Z,57.30
2017-08-26T08:34:16.126Z,58.00
2017-08-26T08:36:43.614Z,57.60
2017-08-26T08:39:11.107Z,56.90
2017-08-26T08:41:38.622Z,57.00
2017-08-26T08:44:06.109Z,56.70
2017-08-26T08:46:33.601Z,57.00
2017-08-26T08:49:01.130Z,56.40
2017-08-26T08:51:28.632Z,56.10
2017-08-26T08:53:56.110Z,57.60
2017-08-26T08:56:23.622Z,56.30
2017-08-26T08:58:51.107Z,56.30
2017-08-26T09:01:18.615Z,56.40
2017-08-26T09:03:46.126Z,56.80
2017-08-26T09:06:13.614Z,57.30
2017-08-26T09:08:41.102Z,57.70
2017-08-26T09:11:08.624Z,56.00
2017-08-26T09:13:36.124Z,57.40
2017-08-26T09:16:03.609Z,57.00
2017-08-26T09:18:31.135Z,56.80
2017-08-26T09:20:58.609Z,55.70
2017-08-26T09:23:26.097Z,55.40
2017-08-26T09:25:53.607Z,57.30
2017-08-26T09:28:21.089Z,55.80
2017-08-26T09:30:48.582Z,55.30
2017-08-26T09:33:16.154Z,56.00
2017-08-26T09:35:43.637Z,55.50
2017-08-26T09:38:11.117Z,56.10
2017-08-26T09:40:38.630Z,57.40
2017-08-26T09:43:06.122Z,55.70
2017-08-26T09:45:33.609Z,56.40
2017-08-26T09:48:01.119Z,54.90
2017-08-26T09:50:28.605Z,55.00
2017-08-26T09:52:56.101Z,55.00
2017-08-26T09:55:23.626Z,56.70
2017-08-26T09:57:51.109Z,55.10
2017-08-26T10:00:18.618Z,54.80
2017-08-26T10:02:46.121Z,56.50
2017-08-26T10:05:13.608Z,55.10
2017-08-26T10:07:41.104Z,55.90
2017-08-26T10:10:08.623Z,56.20
2017-08-26T10:12:36.119Z,53.60
2017-08-26T10:15:03.603Z,56.00
2017-08-26T10:17:31.122Z,53.20
2017-08-26T10:19:58.625Z,54.30
2017-08-26T10:22:26.125Z,53.80
2017-08-26T10:24:53.630Z,53.10
2017-08-26T10:27:21.110Z,52.90
2017-08-26T10:29:48.590Z,54.50
2017-08-26T10:32:16.098Z,53.50
2017-08-26T10:34:43.667Z,53.90
2017-08-26T10:37:11.160Z,53.60
2017-08-26T10:39:38.675Z,55.30
2017-08-26T10:42:06.159Z,54.10
2017-08-26T10:44:33.652Z,53.60
2017-08-26T10:47:01.182Z,53.80
2017-08-26T10:49:28.666Z,53.50
2017-08-26T10:51:56.149Z,55.90
2017-08-26T10:54:23.657Z,56.20
2017-08-26T10:56:51.155Z,53.60
2017-08-26T10:59:18.647Z,54.70
2017-08-26T11:01:46.149Z,54.60
2017-08-26T11:04:13.622Z,52.30
2017-08-26T11:06:41.107Z,52.80
2017-08-26T11:09:08.620Z,53.30
2017-08-26T11:11:36.119Z,52.10
2017-08-26T11:14:03.609Z,53.00
2017-08-26T11:16:31.125Z,54.10
2017-08-26T11:18:58.599Z,54.10
2017-08-26T11:21:26.149Z,53.70
2017-08-26T11:23:53.664Z,53.50
2017-08-26T11:26:21.145Z,53.90
2017-08-26T11:28:48.628Z,51.90
2017-08-26T11:31:16.143Z,52.10
2017-08-26T11:33:43.622Z,52.70
2017-08-26T11:36:11.115Z,53.60
2017-08-26T11:38:38.619Z,52.90
2017-08-26T11:41:06.094Z,53.40
2017-08-26T11:43:33.579Z,53.50
2017-08-26T11:46:01.094Z,51.60
2017-08-26T11:48:28.577Z,49.90
2017-08-26T11:50:56.062Z,51.20
2017-08-26T11:53:23.574Z,53.00
2017-08-26T11:55:51.072Z,53.70
2017-08-26T11:58:18.549Z,52.60
2017-08-26T12:00:46.054Z,53.00
2017-08-26T12:03:13.525Z,52.80
2017-08-26T12:05:41.012Z,53.60
2017-08-26T12:08:08.540Z,53.10
2017-08-26T12:10:36.034Z,51.60
2017-08-26T12:13:03.528Z,50.60
2017-08-26T12:15:31.035Z,51.30
2017-08-26T12:17:58.514Z,52.00
2017-08-26T12:20:26.013Z,52.50
2017-08-26T12:22:53.528Z,52.00
2017-08-26T12:25:21.023Z,52.40
2017-08-26T12:27:48.513Z,53.00
2017-08-26T12:30:16.023Z,52.20
2017-08-26T12:32:43.499Z,52.20
2017-08-26T12:35:10.989Z,52.70
2017-08-26T12:37:38.507Z,50.60
2017-08-26T12:40:05.998Z,50.30
2017-08-26T12:42:33.491Z,50.80
2017-08-26T12:45:00.999Z,49.30
2017-08-26T12:47:28.489Z,50.40
2017-08-26T12:49:55.990Z,51.00
2017-08-26T12:52:23.489Z,50.80
2017-08-26T12:54:50.960Z,50.30
2017-08-26T12:57:18.437Z,50.60
2017-08-26T12:59:45.949Z,49.70
2017-08-26T13:02:13.431Z,50.20
2017-08-26T13:04:40.919Z,50.30
2017-08-26T13:07:08.435Z,51.20
2017-08-26T13:09:35.913Z,51.30
2017-08-26T13:12:03.405Z,51.00
2017-08-26T13:14:30.912Z,51.30
2017-08-26T13:16:58.399Z,51.70
2017-08-26T13:19:25.890Z,50.50
2017-08-26T13:21:53.402Z,50.90
2017-08-26T13:24:20.883Z,49.50
2017-08-26T13:26:48.371Z,48.70
2017-08-26T13:29:15.894Z,48.80
2017-08-26T13:31:43.378Z,49.60
2017-08-26T13:34:10.866Z,48.30
2017-08-26T13:36:38.381Z,47.90
2017-08-26T13:39:05.867Z,49.50
2017-08-26T13:41:33.354Z,48.80
2017-08-26T13:44:00.875Z,46.90
2017-08-26T13:46:28.359Z,47.70
2017-08-26T13:48:55.842Z,50.00
2017-08-26T13:51:23.354Z,50.70
2017-08-26T13:53:50.834Z,51.70
2017-08-26T13:56:18.334Z,51.60
2017-08-26T13:58:45.838Z,51.10
2017-08-26T14:01:13.322Z,51.50
2017-08-26T14:03:40.811Z,49.90
2017-08-26T14:06:08.327Z,47.80
2017-08-26T14:08:35.811Z,46.00
2017-08-26T14:11:03.294Z,47.60
2017-08-26T14:13:30.815Z,48.90
2017-08-26T14:15:58.307Z,50.10
2017-08-26T14:18:25.801Z,48.80
2017-08-26T14:20:53.303Z,49.50
2017-08-26T14:23:20.780Z,50.10
2017-08-26T14:25:48.266Z,49.00
2017-08-26T14:28:15.777Z,49.50
2017-08-26T14:30:43.266Z,48.00
2017-08-26T14:33:10.753Z,47.10
2017-08-26T14:35:38.281Z,49.20
2017-08-26T14:38:05.762Z,49.40
2017-08-26T14:40:33.244Z,49.70
2017-08-26T14:43:00.753Z,49.70
2017-08-26T14:45:28.239Z,50.80
2017-08-26T14:47:55.730Z,50.90
2017-08-26T14:50:23.238Z,49.00
2017-08-26T14:52:50.725Z,48.50
2017-08-26T14:55:18.213Z,47.70
2017-08-26T14:57:45.750Z,47.30
2017-08-26T15:00:13.260Z,47.50
2017-08-26T15:02:40.745Z,45.80
2017-08-26T15:05:08.257Z,46.80
2017-08-26T15:07:35.743Z,48.90
2017-08-26T15:10:03.222Z,49.50
2017-08-26T15:12:30.746Z,48.70
2017-08-26T15:14:58.230Z,47.20
2017-08-26T15:17:25.725Z,46.70
2017-08-26T15:19:53.256Z,47.20
2017-08-26T15:22:20.756Z,48.10
2017-08-26T15:24:48.244Z,48.70
2017-08-26T15:27:15.750Z,48.40
2017-08-26T15:29:43.234Z,49.40
2017-08-26T15:32:10.738Z,47.80
2017-08-26T15:34:38.261Z,46.40
2017-08-26T15:37:05.745Z,46.50
2017-08-26T15:39:33.226Z,46.20
2017-08-26T15:42:00.742Z,46.00
2017-08-26T15:44:28.229Z,46.40
2017-08-26T15:46:55.712Z,47.20
2017-08-26T15:49:23.218Z,46.90
2017-08-26T15:51:50.697Z,48.20
2017-08-26T15:54:18.174Z,47.70
2017-08-26T15:56:45.678Z,47.60
2017-08-26T15:59:13.172Z,46.10
2017-08-26T16:01:40.664Z,46.00
2017-08-26T16:04:08.179Z,45.10
2017-08-26T16:06:35.661Z,46.50
2017-08-26T16:09:03.141Z,45.90
2017-08-26T16:11:30.651Z,45.50
2017-08-26T16:13:58.134Z,47.00
2017-08-26T16:16:25.619Z,47.00
2017-08-26T16:18:53.131Z,46.10
2017-08-26T16:21:20.604Z,46.40
2017-08-26T16:23:48.080Z,46.60
2017-08-26T16:26:15.605Z,46.60
2017-08-26T16:28:43.107Z,46.40
2017-08-26T16:31:10.603Z,45.20
2017-08-26T16:33:38.118Z,46.30
2017-08-26T16:36:05.614Z,45.60
2017-08-26T16:38:33.103Z,46.30
2017-08-26T16:41:00.614Z,46.50
2017-08-26T16:43:28.096Z,46.90
2017-08-26T16:45:55.579Z,46.60
2017-08-26T16:48:23.091Z,46.70
2017-08-26T16:50:50.587Z,46.60
2017-08-26T16:53:18.073Z,48.30
2017-08-26T16:55:45.592Z,48.60
2017-08-26T16:58:13.083Z,48.00
2017-08-26T17:00:40.575Z,48.90
2017-08-26T17:03:08.112Z,48.90
2017-08-26T17:05:35.600Z,47.50
2017-08-26T17:08:03.084Z,47.00
2017-08-26T17:10:30.604Z,47.20
2017-08-26T17:12:58.105Z,47.40
2017-08-26T17:15:25.593Z,47.80
2017-08-26T17:17:53.101Z,48.40
2017-08-26T17:20:20.586Z,48.30
2017-08-26T17:22:48.072Z,48.70
2017-08-26T17:25:15.598Z,49.00
2017-08-26T17:27:43.086Z,48.90
2017-08-26T17:30:10.578Z,48.20
2017-08-26T17:32:38.095Z,48.50
2017-08-26T17:35:05.585Z,48.70
2017-08-26T17:37:33.075Z,48.80
2017-08-26T17:40:00.588Z,49.00
2017-08-26T17:42:28.070Z,48.90
2017-08-26T17:44:55.580Z,49.20
2017-08-26T17:47:23.099Z,48.70
2017-08-26T17:49:50.587Z,48.90
2017-08-26T17:52:18.070Z,48.60
2017-08-26T17:54:45.574Z,48.30
2017-08-26T17:57:13.070Z,47.70
2017-08-26T17:59:40.550Z,47.80
2017-08-26T18:02:08.067Z,48.00
2017-08-26T18:04:35.551Z,47.90
2017-08-26T18:07:03.037Z,47.90
2017-08-26T18:09:30.538Z,47.80
2017-08-26T18:11:58.026Z,48.10
2017-08-26T18:14:25.502Z,48.70
2017-08-26T18:16:53.014Z,48.40
2017-08-26T18:19:20.492Z,48.10
2017-08-26T18:21:47.996Z,48.40
2017-08-26T18:24:15.515Z,48.40
2017-08-26T18:26:43.005Z,48.00
2017-08-26T18:29:10.486Z,48.40
2017-08-26T18:31:38.012Z,48.20
2017-08-26T18:34:05.499Z,48.10
2017-08-26T18:36:32.983Z,48.90
2017-08-26T18:39:00.489Z,48.30
2017-08-26T18:41:27.974Z,48.10
2017-08-26T18:43:55.467Z,46.90
2017-08-26T18:46:22.985Z,46.10
2017-08-26T18:48:50.475Z,47.20
2017-08-26T18:51:17.971Z,45.80
2017-08-26T18:53:45.491Z,45.80
2017-08-26T18:56:12.988Z,45.40
2017-08-26T18:58:40.481Z,45.00
2017-08-26T19:01:08.009Z,44.70
2017-08-26T19:03:35.498Z,45.90
2017-08-26T19:06:03.005Z,45.10
2017-08-26T19:08:30.522Z,44.80
2017-08-26T19:10:58.007Z,45.00
2017-08-26T19:13:25.492Z,45.50
2017-08-26T19:15:53.006Z,44.70
2017-08-26T19:18:20.499Z,44.60
2017-08-26T19:20:47.977Z,44.70
2017-08-26T19:23:15.499Z,44.60
2017-08-26T19:25:42.998Z,44.70
2017-08-26T19:28:10.487Z,44.70
2017-08-26T19:30:37.993Z,44.90
2017-08-26T19:33:05.482Z,44.90
2017-08-26T19:35:32.963Z,44.80
2017-08-26T19:38:00.484Z,44.70
2017-08-26T19:40:27.975Z,44.90
2017-08-26T19:42:55.473Z,44.90
2017-08-26T19:45:22.983Z,47.10
2017-08-26T19:47:50.467Z,47.30
2017-08-26T19:50:17.970Z,47.60
2017-08-26T19:52:45.483Z,46.90
2017-08-26T19:55:12.976Z,46.50
2017-08-26T19:57:40.466Z,45.90
2017-08-26T20:00:07.984Z,45.50
2017-08-26T20:02:35.475Z,46.30
2017-08-26T20:05:02.980Z,46.80
2017-08-26T20:07:30.478Z,48.20
2017-08-26T20:09:57.971Z,48.90
2017-08-26T20:12:25.444Z,49.60
2017-08-26T20:14:52.947Z,50.00
2017-08-26T20:17:20.435Z,50.10
2017-08-26T20:19:47.923Z,49.70
2017-08-26T20:22:15.434Z,50.00
2017-08-26T20:24:42.927Z,50.10
2017-08-26T20:27:10.408Z,50.70
2017-08-26T20:29:37.922Z,51.00
2017-08-26T20:32:05.398Z,50.10
2017-08-26T20:34:32.996Z,49.70
2017-08-26T20:37:00.505Z,48.40
2017-08-26T20:39:28.000Z,50.20
2017-08-26T20:41:55.483Z,48.70
2017-08-26T20:44:23.002Z,50.20
2017-08-26T20:46:50.498Z,49.90
2017-08-26T20:49:17.984Z,50.90
2017-08-26T20:51:45.502Z,51.20
2017-08-26T20:54:12.982Z,50.70
2017-08-26T20:56:40.480Z,51.40
2017-08-26T20:59:07.996Z,51.00
2017-08-26T21:01:35.490Z,50.10
2017-08-26T21:04:02.974Z,50.30
2017-08-26T21:06:30.485Z,50.70
2017-08-26T21:08:57.970Z,51.40
2017-08-26T21:11:25.454Z,51.40
2017-08-26T21:13:52.969Z,51.10
2017-08-26T21:16:20.457Z,51.50
2017-08-26T21:18:47.944Z,51.60
2017-08-26T21:21:15.455Z,51.30
2017-08-26T21:23:42.946Z,51.50
2017-08-26T21:26:10.439Z,51.30
2017-08-26T21:28:37.964Z,51.80
2017-08-26T21:31:05.455Z,50.80
2017-08-26T21:33:32.943Z,51.80
2017-08-26T21:36:00.492Z,51.20
2017-08-26T21:38:27.969Z,51.00
2017-08-26T21:40:55.454Z,51.80
2017-08-26T21:43:22.967Z,51.80
2017-08-26T21:45:50.468Z,52.00
2017-08-26T21:48:17.955Z,52.10
2017-08-26T21:50:45.472Z,52.50
2017-08-26T21:53:12.971Z,52.40
2017-08-26T21:55:40.467Z,52.60
2017-08-26T21:58:07.994Z,53.10
2017-08-26T22:00:35.478Z,52.90
2017-08-26T22:03:02.970Z,53.30
2017-08-26T22:05:30.474Z,53.40
2017-08-26T22:07:57.963Z,53.60
2017-08-26T22:10:25.441Z,53.80
2017-08-26T22:12:52.963Z,54.10
2017-08-26T22:15:20.460Z,54.20
2017-08-26T22:17:47.946Z,54.90
2017-08-26T22:20:15.450Z,54.50
2017-08-26T22:22:42.938Z,54.40
2017-08-26T22:25:10.413Z,54.50
2017-08-26T22:27:37.916Z,54.40
2017-08-26T22:30:05.402Z,54.50
2017-08-26T22:32:32.880Z,54.60
2017-08-26T22:35:00.394Z,54.60
2017-08-26T22:37:27.878Z,54.50
2017-08-26T22:39:55.357Z,54.30
2017-08-26T22:42:22.879Z,54.30
2017-08-26T22:44:50.367Z,54.70
2017-08-26T22:47:17.852Z,54.80
2017-08-26T22:49:45.359Z,55.30
2017-08-26T22:52:12.840Z,56.20
2017-08-26T22:54:40.312Z,55.30
2017-08-26T22:57:07.833Z,55.30
2017-08-26T22:59:35.324Z,55.20
2017-08-26T23:02:02.814Z,55.00
2017-08-26T23:04:30.325Z,55.00
2017-08-26T23:06:57.806Z,54.80
2017-08-26T23:09:25.300Z,54.80
2017-08-26T23:11:52.801Z,54.70
2017-08-26T23:14:20.283Z,54.50
2017-08-26T23:16:47.766Z,55.00
2017-08-26T23:19:15.268Z,54.00
2017-08-26T23:21:42.746Z,53.80
2017-08-26T23:24:10.228Z,53.10
2017-08-26T23:26:37.729Z,52.50
2017-08-26T23:29:05.222Z,51.90
2017-08-26T23:31:32.705Z,51.50
2017-08-26T23:34:00.225Z,50.90
2017-08-26T23:36:27.706Z,50.60
2017-08-26T23:38:55.191Z,50.20
2017-08-26T23:41:22.714Z,52.80
2017-08-26T23:43:50.227Z,49.40
2017-08-26T23:46:17.720Z,50.30
2017-08-26T23:48:45.223Z,49.60
2017-08-26T23:51:12.708Z,51.60
2017-08-26T23:53:40.180Z,49.80
2017-08-26T23:56:07.686Z,50.00
2017-08-26T23:58:35.162Z,49.40
